Time;durP1;ratioP1;P1;durP2;ratioP2;P2;SDS_P1;SDS_P2;PMS_P1;PMS_P2;Temp;Humidity;BMP_temperature;BMP_pressure;BME280_temperature;BME280_humidity;BME280_pressure;Samples;Min_cycle;Max_cycle;Signal;HPM_P1;HPM_P2
2023/07/29 00:01:30;;;;;;;8.65;5.30;;;19.00;99.90;;;;;;5041669;28;20400;-81
2023/07/29 00:03:56;;;;;;;11.07;6.25;;;19.00;99.90;;;;;;5058411;28;20029;-81
2023/07/29 00:06:22;;;;;;;9.85;5.93;;;18.90;99.90;;;;;;5076033;28;20027;-80
2023/07/29 00:08:47;;;;;;;8.45;5.20;;;18.90;99.90;;;;;;5058336;28;20036;-80
2023/07/29 00:11:13;;;;;;;7.75;4.93;;;18.90;99.90;;;;;;5040813;28;20073;-80
2023/07/29 00:13:38;;;;;;;10.60;5.78;;;18.80;99.90;;;;;;5057718;28;20054;-80
2023/07/29 00:16:04;;;;;;;8.63;5.25;;;18.80;99.90;;;;;;5074412;28;20477;-80
2023/07/29 00:18:31;;;;;;;7.53;5.07;;;18.80;99.90;;;;;;5047746;28;20032;-80
2023/07/29 00:20:57;;;;;;;8.80;5.35;;;18.70;99.90;;;;;;5058179;28;20153;-79
2023/07/29 00:23:23;;;;;;;8.77;5.43;;;18.70;99.90;;;;;;5057528;28;20031;-80
2023/07/29 00:25:48;;;;;;;12.10;6.35;;;18.70;99.90;;;;;;5057654;28;20108;-80
2023/07/29 00:28:14;;;;;;;13.40;6.28;;;18.70;99.90;;;;;;5041075;28;20112;-80
2023/07/29 00:30:40;;;;;;;9.95;6.28;;;18.70;99.90;;;;;;5057660;28;20036;-80
2023/07/29 00:33:05;;;;;;;9.45;6.25;;;18.60;99.90;;;;;;5057381;28;20033;-80
2023/07/29 00:35:31;;;;;;;10.98;6.32;;;18.60;99.90;;;;;;5057576;28;20116;-79
2023/07/29 00:37:56;;;;;;;10.27;5.93;;;18.60;99.90;;;;;;5057369;28;20021;-79
2023/07/29 00:40:22;;;;;;;9.88;6.95;;;18.60;99.90;;;;;;5073900;28;20037;-80
2023/07/29 00:42:50;;;;;;;10.13;6.15;;;18.60;99.90;;;;;;5057409;28;20469;-80
2023/07/29 00:45:16;;;;;;;9.75;6.07;;;18.60;99.90;;;;;;5056991;28;20067;-79
2023/07/29 00:47:43;;;;;;;10.82;6.20;;;18.60;99.90;;;;;;5058129;28;20052;-79
2023/07/29 00:50:10;;;;;;;9.68;6.18;;;18.50;99.90;;;;;;5056938;28;20025;-80
2023/07/29 00:52:36;;;;;;;8.98;6.15;;;18.50;99.90;;;;;;5075136;28;20488;-79
2023/07/29 00:55:02;;;;;;;10.55;6.20;;;18.50;99.90;;;;;;5073658;28;20032;-79
2023/07/29 00:57:29;;;;;;;13.02;6.13;;;18.50;99.90;;;;;;5057482;28;20472;-79
2023/07/29 00:59:55;;;;;;;12.15;6.85;;;18.50;99.90;;;;;;5073813;28;20033;-79
2023/07/29 01:02:21;;;;;;;10.93;6.40;;;18.50;99.90;;;;;;5056910;28;20112;-79
2023/07/29 01:04:58;;;;;;;10.02;6.35;;;18.40;99.90;;;;;;5075245;28;20489;-79
2023/07/29 01:07:39;;;;;;;8.90;6.38;;;18.40;99.90;;;;;;5057173;28;20178;-79
2023/07/29 01:10:19;;;;;;;9.70;6.05;;;18.50;99.90;;;;;;5074620;28;20354;-80
2023/07/29 01:12:56;;;;;;;12.48;6.80;;;18.50;99.90;;;;;;5074717;28;20537;-79
2023/07/29 01:15:47;;;;;;;11.57;6.82;;;18.50;99.90;;;;;;5074727;28;20024;-79
2023/07/29 01:18:44;;;;;;;11.23;7.10;;;18.50;99.90;;;;;;5073588;28;20491;-79
2023/07/29 01:21:11;;;;;;;9.50;6.20;;;18.50;99.90;;;;;;5054222;28;20087;-79
2023/07/29 01:23:37;;;;;;;12.07;7.22;;;18.60;99.90;;;;;;5074287;28;20503;-79
2023/07/29 01:26:03;;;;;;;9.73;6.40;;;18.60;99.90;;;;;;5039737;28;20064;-79
2023/07/29 01:28:30;;;;;;;13.05;7.18;;;18.60;99.90;;;;;;5056451;28;20085;-79
2023/07/29 01:31:16;;;;;;;12.35;7.35;;;18.60;99.90;;;;;;5056237;28;20527;-78
2023/07/29 01:34:19;;;;;;;12.60;7.65;;;18.70;99.90;;;;;;5074367;28;20024;-79
2023/07/29 01:36:46;;;;;;;10.75;7.18;;;18.70;99.90;;;;;;5056335;28;20016;-79
2023/07/29 01:39:14;;;;;;;14.05;7.55;;;18.70;99.90;;;;;;5073991;28;20032;-80
2023/07/29 01:41:41;;;;;;;12.02;7.65;;;18.70;99.90;;;;;;5056232;28;20067;-79
2023/07/29 01:44:07;;;;;;;11.23;7.18;;;18.70;99.90;;;;;;5056732;28;20485;-79
2023/07/29 01:46:34;;;;;;;11.95;7.97;;;18.80;99.90;;;;;;5056224;28;20552;-80
2023/07/29 01:48:59;;;;;;;10.85;6.63;;;18.80;99.90;;;;;;5056686;28;20098;-80
2023/07/29 01:51:25;;;;;;;12.75;6.38;;;18.80;99.90;;;;;;5039047;28;20488;-80
2023/07/29 01:53:51;;;;;;;8.55;4.90;;;18.80;99.90;;;;;;5038773;28;20560;-81
2023/07/29 01:56:16;;;;;;;8.52;4.78;;;18.80;99.90;;;;;;5062651;28;20043;-80
2023/07/29 01:58:42;;;;;;;8.57;4.85;;;18.70;99.90;;;;;;5070471;28;20035;-79
2023/07/29 02:01:08;;;;;;;10.80;5.30;;;18.70;99.90;;;;;;5074196;28;20392;-80
2023/07/29 02:03:33;;;;;;;9.10;4.55;;;18.70;99.90;;;;;;5051316;28;20040;-79
2023/07/29 02:05:59;;;;;;;8.13;5.28;;;18.60;99.90;;;;;;5075940;28;20145;-80
2023/07/29 02:08:24;;;;;;;7.82;5.22;;;18.60;99.90;;;;;;5058634;28;20484;-80
2023/07/29 02:10:50;;;;;;;7.38;5.10;;;18.60;99.90;;;;;;5075404;28;20048;-78
2023/07/29 02:13:16;;;;;;;12.35;6.18;;;18.60;99.90;;;;;;5075881;28;20028;-80
2023/07/29 02:15:41;;;;;;;10.38;5.95;;;18.60;99.90;;;;;;5093723;28;20020;-80
2023/07/29 02:18:07;;;;;;;9.88;6.50;;;18.60;99.90;;;;;;5058771;28;20027;-79
2023/07/29 02:20:33;;;;;;;9.63;6.18;;;18.60;99.90;;;;;;5075626;28;20024;-79
2023/07/29 02:22:59;;;;;;;10.45;7.35;;;18.70;99.90;;;;;;5075485;28;20040;-79
2023/07/29 02:25:24;;;;;;;10.38;6.57;;;18.70;99.90;;;;;;5075971;28;20380;-79
2023/07/29 02:27:50;;;;;;;9.70;6.35;;;18.70;99.90;;;;;;5049000;23;20068;-84
2023/07/29 02:30:15;;;;;;;11.82;7.35;;;18.70;99.90;;;;;;5040484;28;20091;-83
2023/07/29 02:32:41;;;;;;;11.20;6.93;;;18.70;99.90;;;;;;5032715;28;20096;-82
2023/07/29 02:35:07;;;;;;;10.77;6.95;;;18.70;99.90;;;;;;5032557;28;20021;-84
2023/07/29 02:37:33;;;;;;;11.70;8.32;;;18.70;99.90;;;;;;5032236;28;20037;-84
2023/07/29 02:39:59;;;;;;;12.60;8.35;;;18.70;99.90;;;;;;5032171;28;20080;-76
2023/07/29 02:42:24;;;;;;;12.68;7.60;;;18.70;99.90;;;;;;5033387;28;20026;-76
2023/07/29 02:44:50;;;;;;;10.73;7.43;;;18.70;99.90;;;;;;5048735;28;20033;-76
2023/07/29 02:47:15;;;;;;;11.45;7.97;;;18.70;99.90;;;;;;5033245;28;20039;-76
2023/07/29 02:49:41;;;;;;;12.52;7.78;;;18.70;99.90;;;;;;5031904;28;20040;-76
2023/07/29 02:52:07;;;;;;;15.13;8.35;;;18.70;99.90;;;;;;5031911;28;20116;-76
2023/07/29 02:54:32;;;;;;;12.13;7.53;;;18.70;99.90;;;;;;5048808;28;20025;-76
2023/07/29 02:56:58;;;;;;;10.65;7.13;;;18.70;99.90;;;;;;5031907;28;20044;-75
2023/07/29 02:59:24;;;;;;;10.88;7.25;;;18.70;99.90;;;;;;5032074;28;20040;-76
2023/07/29 03:01:50;;;;;;;11.70;7.82;;;18.70;99.90;;;;;;5033103;28;20025;-77
2023/07/29 03:04:15;;;;;;;13.30;7.00;;;18.70;99.90;;;;;;5031816;28;20086;-76
2023/07/29 03:06:42;;;;;;;8.98;6.68;;;18.70;99.90;;;;;;5033221;28;20490;-76
2023/07/29 03:09:08;;;;;;;11.60;6.32;;;18.70;99.90;;;;;;5039948;28;20029;-76
2023/07/29 03:11:33;;;;;;;11.88;7.53;;;18.70;99.90;;;;;;5013574;28;20037;-75
2023/07/29 03:14:00;;;;;;;14.38;6.65;;;18.70;99.90;;;;;;5015523;28;20041;-76
2023/07/29 03:16:26;;;;;;;10.38;6.40;;;18.70;99.90;;;;;;5016010;28;20389;-76
2023/07/29 03:18:51;;;;;;;10.57;6.15;;;18.60;99.90;;;;;;5016620;28;20097;-76
2023/07/29 03:21:17;;;;;;;10.02;6.22;;;18.60;99.90;;;;;;5016031;28;20548;-75
2023/07/29 03:23:43;;;;;;;9.45;5.53;;;18.60;99.90;;;;;;5017297;28;20113;-76
2023/07/29 03:26:11;;;;;;;6.53;4.22;;;18.60;99.90;;;;;;5017675;28;20076;-76
2023/07/29 03:28:43;;;;;;;9.15;4.60;;;18.60;99.90;;;;;;5015851;28;20060;-76
2023/07/29 03:31:09;;;;;;;6.88;3.92;;;18.60;99.90;;;;;;5017546;28;20370;-76
2023/07/29 03:33:35;;;;;;;8.07;4.10;;;18.60;99.90;;;;;;5017418;28;20025;-76
2023/07/29 03:36:01;;;;;;;8.30;3.70;;;18.60;99.90;;;;;;5017144;28;20030;-76
2023/07/29 03:38:27;;;;;;;8.18;4.10;;;18.50;99.90;;;;;;5013331;28;20034;-75
2023/07/29 03:40:53;;;;;;;8.27;3.72;;;18.50;99.90;;;;;;5015749;28;20036;-76
2023/07/29 03:43:19;;;;;;;6.00;3.42;;;18.50;99.90;;;;;;5016782;28;20481;-75
2023/07/29 03:45:45;;;;;;;6.85;3.92;;;18.50;99.90;;;;;;5016797;28;20034;-77
2023/07/29 03:48:10;;;;;;;7.15;3.42;;;18.40;99.90;;;;;;5016682;28;20033;-76
2023/07/29 03:50:37;;;;;;;7.90;3.55;;;18.50;99.90;;;;;;5016508;28;20394;-75
2023/07/29 03:53:03;;;;;;;7.55;3.40;;;18.40;99.90;;;;;;5024969;28;20060;-75
2023/07/29 03:55:29;;;;;;;8.80;3.55;;;18.40;99.90;;;;;;5035416;28;20030;-76
2023/07/29 03:57:59;;;;;;;5.85;3.13;;;18.40;99.90;;;;;;5036196;28;20068;-76
2023/07/29 04:00:25;;;;;;;6.28;2.55;;;18.40;99.90;;;;;;5036130;28;20028;-76
2023/07/29 04:02:51;;;;;;;5.85;3.00;;;18.30;99.90;;;;;;5036360;28;20099;-75
2023/07/29 04:05:17;;;;;;;5.88;3.17;;;18.30;99.90;;;;;;5036028;28;20076;-76
2023/07/29 04:07:43;;;;;;;6.90;2.95;;;18.30;99.90;;;;;;5035005;28;20040;-76
2023/07/29 04:10:09;;;;;;;5.20;2.65;;;18.30;99.90;;;;;;5018080;28;20025;-76
2023/07/29 04:12:34;;;;;;;4.75;2.60;;;18.20;99.90;;;;;;5031032;28;20069;-76
2023/07/29 04:15:00;;;;;;;6.40;2.55;;;18.30;99.90;;;;;;5007849;28;20148;-76
2023/07/29 04:17:26;;;;;;;5.93;2.60;;;18.20;99.90;;;;;;5016088;28;20442;-76
2023/07/29 04:19:51;;;;;;;6.07;1.88;;;18.20;99.90;;;;;;4996269;28;20518;-76
2023/07/29 04:22:17;;;;;;;4.40;2.20;;;18.10;99.90;;;;;;5003174;28;20109;-75
2023/07/29 04:24:42;;;;;;;4.25;2.40;;;18.20;99.90;;;;;;5015291;28;20036;-75
2023/07/29 04:27:08;;;;;;;4.10;2.28;;;18.20;99.90;;;;;;5014878;28;20088;-84
2023/07/29 04:29:35;;;;;;;6.00;2.45;;;18.10;99.90;;;;;;5016330;28;20038;-84
2023/07/29 04:32:02;;;;;;;4.72;2.30;;;18.10;99.90;;;;;;5014726;28;20113;-86
2023/07/29 04:34:27;;;;;;;6.88;1.88;;;18.10;99.90;;;;;;5015288;28;20022;-84
2023/07/29 04:36:53;;;;;;;3.97;1.40;;;18.10;99.90;;;;;;5015919;28;20022;-75
2023/07/29 04:39:18;;;;;;;4.40;2.13;;;18.10;99.90;;;;;;5015779;28;20105;-75
2023/07/29 04:41:44;;;;;;;6.45;2.13;;;18.10;99.90;;;;;;5016225;28;20044;-76
2023/07/29 04:44:10;;;;;;;5.97;2.03;;;18.10;99.90;;;;;;5031132;28;20083;-75
2023/07/29 04:46:36;;;;;;;3.35;1.67;;;18.10;99.90;;;;;;5014623;28;20398;-76
2023/07/29 04:49:02;;;;;;;3.25;1.50;;;18.10;99.90;;;;;;5034952;28;20037;-75
2023/07/29 04:51:28;;;;;;;3.70;1.75;;;18.00;99.90;;;;;;5034397;28;20052;-76
2023/07/29 04:53:53;;;;;;;3.47;1.60;;;18.10;99.90;;;;;;5034872;28;20038;-75
2023/07/29 04:56:19;;;;;;;3.83;1.95;;;18.10;99.90;;;;;;5035478;28;20393;-76
2023/07/29 04:58:45;;;;;;;4.18;2.05;;;18.00;99.90;;;;;;5035357;28;20452;-76
2023/07/29 05:01:11;;;;;;;3.10;1.33;;;18.00;99.90;;;;;;5034264;28;20116;-75
2023/07/29 05:03:37;;;;;;;3.67;1.92;;;18.00;99.90;;;;;;5034960;28;20045;-75
2023/07/29 05:06:02;;;;;;;3.80;1.50;;;18.00;99.90;;;;;;5034203;28;20462;-76
2023/07/29 05:08:28;;;;;;;5.25;2.22;;;18.00;99.90;;;;;;5033649;28;20063;-76
2023/07/29 05:10:54;;;;;;;3.28;1.38;;;18.00;99.90;;;;;;5033758;28;20075;-75
2023/07/29 05:13:20;;;;;;;3.80;1.85;;;18.00;99.90;;;;;;5033675;28;20116;-75
2023/07/29 05:15:47;;;;;;;3.20;1.50;;;18.00;99.90;;;;;;5034725;28;20485;-76
2023/07/29 05:18:13;;;;;;;4.85;1.88;;;18.10;99.90;;;;;;5034793;28;20389;-76
2023/07/29 05:20:39;;;;;;;3.17;1.35;;;18.10;99.90;;;;;;5033443;28;20029;-76
2023/07/29 05:23:04;;;;;;;4.18;1.35;;;18.20;99.90;;;;;;5033287;28;20027;-76
2023/07/29 05:25:30;;;;;;;4.60;1.40;;;18.10;99.90;;;;;;5000865;28;20018;-75
2023/07/29 05:27:57;;;;;;;4.60;1.55;;;18.20;99.90;;;;;;5034590;28;20057;-75
2023/07/29 05:30:23;;;;;;;3.38;1.50;;;18.20;99.90;;;;;;5033300;28;20033;-76
2023/07/29 05:32:48;;;;;;;4.78;1.92;;;18.20;99.90;;;;;;5033299;28;20030;-76
2023/07/29 05:35:14;;;;;;;2.97;1.48;;;18.20;99.90;;;;;;5033689;28;20522;-76
2023/07/29 05:37:41;;;;;;;4.88;1.92;;;18.20;99.90;;;;;;5033559;28;20042;-76
2023/07/29 05:40:08;;;;;;;6.07;1.98;;;18.20;99.90;;;;;;5033776;28;20075;-77
2023/07/29 05:42:34;;;;;;;6.55;1.92;;;18.20;99.90;;;;;;5034685;28;20029;-76
2023/07/29 05:44:59;;;;;;;6.43;2.30;;;18.10;99.90;;;;;;5033214;28;20030;-76
2023/07/29 05:47:25;;;;;;;5.78;2.47;;;18.20;99.90;;;;;;5034426;28;20051;-76
2023/07/29 05:49:51;;;;;;;6.55;2.30;;;18.20;99.90;;;;;;5032887;28;20037;-77
2023/07/29 05:52:16;;;;;;;4.68;2.40;;;18.20;99.90;;;;;;5016210;28;20029;-77
2023/07/29 05:54:42;;;;;;;6.80;2.72;;;18.20;99.90;;;;;;5032763;28;20386;-76
2023/07/29 05:57:09;;;;;;;5.30;2.53;;;18.20;99.90;;;;;;5034267;28;20037;-77
2023/07/29 05:59:35;;;;;;;5.28;2.35;;;18.20;99.90;;;;;;5032540;28;20071;-76
2023/07/29 06:02:01;;;;;;;5.80;2.83;;;18.30;99.90;;;;;;5033963;28;20033;-76
2023/07/29 06:04:27;;;;;;;4.22;2.35;;;18.30;99.90;;;;;;5033974;28;20013;-77
2023/07/29 06:06:52;;;;;;;6.45;3.03;;;18.30;99.90;;;;;;5032745;28;20389;-76
2023/07/29 06:09:18;;;;;;;7.20;2.55;;;18.30;99.90;;;;;;5032648;28;20108;-76
2023/07/29 06:11:43;;;;;;;6.00;3.10;;;18.30;99.90;;;;;;5032488;28;20029;-76
2023/07/29 06:14:09;;;;;;;6.20;2.80;;;18.30;99.90;;;;;;5033740;28;20025;-77
2023/07/29 06:16:35;;;;;;;5.40;2.72;;;18.40;99.90;;;;;;5032529;28;20051;-77
2023/07/29 06:19:00;;;;;;;5.53;3.20;;;18.40;99.90;;;;;;5033853;28;20486;-76
2023/07/29 06:21:26;;;;;;;5.40;2.60;;;18.50;99.90;;;;;;5033745;28;20394;-77
2023/07/29 06:23:52;;;;;;;5.50;2.65;;;18.50;99.90;;;;;;5032550;28;20402;-76
2023/07/29 06:26:17;;;;;;;7.18;2.88;;;18.50;99.90;;;;;;5018398;28;20041;-77
2023/07/29 06:28:43;;;;;;;5.25;2.83;;;18.60;99.90;;;;;;4996210;28;20061;-76
2023/07/29 06:31:09;;;;;;;4.63;2.67;;;18.70;99.90;;;;;;5012547;28;20026;-77
2023/07/29 06:33:34;;;;;;;4.95;2.67;;;18.70;99.90;;;;;;5012862;28;20030;-77
2023/07/29 06:36:00;;;;;;;5.82;3.13;;;18.70;99.90;;;;;;5012586;28;20026;-76
2023/07/29 06:38:25;;;;;;;5.47;2.80;;;18.80;99.90;;;;;;5014236;28;20454;-76
2023/07/29 06:40:52;;;;;;;6.20;3.15;;;18.80;99.90;;;;;;5013694;28;20034;-76
2023/07/29 06:43:18;;;;;;;6.90;2.88;;;18.90;99.90;;;;;;5012102;28;20433;-77
2023/07/29 06:45:43;;;;;;;9.25;3.13;;;18.80;99.90;;;;;;5013583;28;20113;-77
2023/07/29 06:48:09;;;;;;;5.72;2.72;;;18.90;99.90;;;;;;5012254;28;20387;-77
2023/07/29 06:50:35;;;;;;;5.65;3.13;;;18.90;99.90;;;;;;5012439;28;20040;-76
2023/07/29 06:53:00;;;;;;;7.20;3.15;;;18.90;99.90;;;;;;4996127;28;20160;-76
2023/07/29 06:55:26;;;;;;;8.13;3.42;;;19.00;99.80;;;;;;5012425;28;20026;-76
2023/07/29 06:57:52;;;;;;;7.55;2.80;;;19.00;99.70;;;;;;5011864;28;20037;-76
2023/07/29 07:00:17;;;;;;;7.18;3.33;;;19.00;99.60;;;;;;5011390;28;20033;-77
2023/07/29 07:02:43;;;;;;;5.88;3.47;;;19.10;99.50;;;;;;5012002;28;20084;-77
2023/07/29 07:05:09;;;;;;;6.38;3.28;;;19.10;99.50;;;;;;5013221;28;20030;-77
2023/07/29 07:07:34;;;;;;;8.23;3.72;;;19.10;99.50;;;;;;5011978;28;20037;-76
2023/07/29 07:10:00;;;;;;;6.07;3.05;;;19.10;99.30;;;;;;5012196;28;20494;-77
2023/07/29 07:12:26;;;;;;;8.38;3.55;;;19.10;99.30;;;;;;4995846;28;20037;-76
2023/07/29 07:14:52;;;;;;;5.97;3.05;;;19.20;99.40;;;;;;5012101;28;20026;-77
2023/07/29 07:17:18;;;;;;;6.10;3.38;;;19.20;99.30;;;;;;5012226;28;20030;-77
2023/07/29 07:19:43;;;;;;;5.85;3.40;;;19.30;99.40;;;;;;5012095;28;20072;-77
2023/07/29 07:22:09;;;;;;;5.10;3.17;;;19.30;99.20;;;;;;5011991;28;20030;-77
2023/07/29 07:24:35;;;;;;;5.55;3.30;;;19.50;99.20;;;;;;5011800;28;20033;-76
2023/07/29 07:27:00;;;;;;;5.47;3.65;;;19.50;99.20;;;;;;5012833;28;20046;-77
2023/07/29 07:29:26;;;;;;;6.57;4.03;;;19.70;99.20;;;;;;4979519;28;20037;-77
2023/07/29 07:31:53;;;;;;;8.32;3.97;;;19.80;98.70;;;;;;5013229;28;20033;-77
2023/07/29 07:34:19;;;;;;;7.85;4.78;;;19.80;98.70;;;;;;5008616;28;20150;-76
2023/07/29 07:36:45;;;;;;;5.93;3.97;;;19.90;98.20;;;;;;5004476;28;20391;-77
2023/07/29 07:39:11;;;;;;;6.07;3.40;;;19.90;98.20;;;;;;5011719;28;20022;-77
2023/07/29 07:41:36;;;;;;;6.13;4.07;;;20.00;98.20;;;;;;5013074;28;20056;-76
2023/07/29 07:44:02;;;;;;;4.95;2.88;;;20.00;98.10;;;;;;5038913;28;20022;-76
2023/07/29 07:46:28;;;;;;;6.68;3.20;;;20.10;98.10;;;;;;5021764;28;20038;-77
2023/07/29 07:48:54;;;;;;;6.32;3.45;;;20.20;97.90;;;;;;5011526;28;20076;-78
2023/07/29 07:51:19;;;;;;;6.03;3.35;;;20.30;97.60;;;;;;5013064;28;20034;-77
2023/07/29 07:53:45;;;;;;;6.40;3.97;;;20.20;97.40;;;;;;5010853;28;20486;-77
2023/07/29 07:56:11;;;;;;;6.85;3.55;;;20.30;97.10;;;;;;5026774;28;20030;-76
2023/07/29 07:58:38;;;;;;;6.22;4.05;;;20.30;96.90;;;;;;5013549;28;20364;-76
2023/07/29 08:01:05;;;;;;;5.43;3.50;;;20.30;96.50;;;;;;5016160;28;20017;-76
2023/07/29 08:03:31;;;;;;;7.32;3.58;;;20.30;96.40;;;;;;5014749;28;20037;-76
2023/07/29 08:05:58;;;;;;;6.07;3.72;;;20.20;96.20;;;;;;5031569;28;20022;-77
2023/07/29 08:08:24;;;;;;;5.13;3.20;;;20.20;96.10;;;;;;5015437;28;20050;-77
2023/07/29 08:10:50;;;;;;;8.75;2.65;;;20.10;96.10;;;;;;5015820;28;20033;-77
2023/07/29 08:13:16;;;;;;;6.40;2.97;;;20.10;96.20;;;;;;5016227;28;20032;-77
2023/07/29 08:15:41;;;;;;;6.05;2.95;;;20.20;96.30;;;;;;5023085;28;20030;-77
2023/07/29 08:18:07;;;;;;;4.80;2.78;;;20.20;96.40;;;;;;5031140;28;20025;-76
2023/07/29 08:20:33;;;;;;;5.57;2.45;;;20.30;96.30;;;;;;5016049;28;20033;-77
2023/07/29 08:22:58;;;;;;;5.65;2.53;;;20.30;96.30;;;;;;5025317;28;20064;-77
2023/07/29 08:25:24;;;;;;;4.60;2.30;;;20.40;96.10;;;;;;5034727;28;20025;-76
2023/07/29 08:27:50;;;;;;;3.30;1.88;;;20.50;96.10;;;;;;5017673;28;20514;-77
2023/07/29 08:30:16;;;;;;;3.53;1.60;;;20.50;95.80;;;;;;5029057;28;20521;-76
2023/07/29 08:32:42;;;;;;;5.60;2.20;;;20.50;95.70;;;;;;5015945;28;20121;-76
2023/07/29 08:35:08;;;;;;;3.03;1.83;;;20.50;95.40;;;;;;5031131;28;20061;-76
2023/07/29 08:37:33;;;;;;;4.50;2.17;;;20.50;95.40;;;;;;5012418;28;20023;-77
2023/07/29 08:39:59;;;;;;;2.97;2.00;;;20.50;95.30;;;;;;5029681;28;20021;-76
2023/07/29 08:42:31;;;;;;;4.15;2.00;;;20.50;95.40;;;;;;5035444;28;20038;-77
2023/07/29 08:45:00;;;;;;;3.20;2.05;;;20.50;95.40;;;;;;5030042;28;20030;-77
2023/07/29 08:47:25;;;;;;;4.22;1.92;;;20.60;95.20;;;;;;4999694;28;20037;-78
2023/07/29 08:49:52;;;;;;;4.07;1.75;;;20.60;95.10;;;;;;4978568;28;20027;-78
2023/07/29 08:52:18;;;;;;;4.68;1.42;;;20.70;95.00;;;;;;5029928;28;20083;-80
2023/07/29 08:54:44;;;;;;;4.63;1.45;;;20.90;94.90;;;;;;5021643;28;20038;-78
2023/07/29 08:57:10;;;;;;;5.20;1.60;;;21.00;94.50;;;;;;5030748;28;20509;-77
2023/07/29 08:59:36;;;;;;;3.40;1.13;;;21.00;94.20;;;;;;5030684;28;20076;-78
2023/07/29 09:02:02;;;;;;;8.23;1.50;;;21.10;94.20;;;;;;5015464;28;20409;-79
2023/07/29 09:04:28;;;;;;;2.72;1.23;;;21.10;93.90;;;;;;5014117;28;20029;-77
2023/07/29 09:06:56;;;;;;;2.58;1.33;;;21.20;93.60;;;;;;5030596;28;20513;-78
2023/07/29 09:09:22;;;;;;;3.53;1.60;;;21.20;93.40;;;;;;5013754;28;20498;-78
2023/07/29 09:11:48;;;;;;;3.17;1.10;;;21.20;93.10;;;;;;5013488;28;20056;-77
2023/07/29 09:14:14;;;;;;;3.10;1.45;;;21.20;93.10;;;;;;4997541;28;20117;-77
2023/07/29 09:16:41;;;;;;;4.18;1.38;;;21.20;92.30;;;;;;4997486;28;20026;-77
2023/07/29 09:19:06;;;;;;;2.42;1.40;;;21.10;92.40;;;;;;5014637;28;20018;-77
2023/07/29 09:21:32;;;;;;;3.88;1.63;;;21.20;92.30;;;;;;5015073;28;20037;-77
2023/07/29 09:24:04;;;;;;;3.65;1.90;;;21.20;92.30;;;;;;5014982;28;20382;-76
2023/07/29 09:26:31;;;;;;;3.47;1.27;;;21.20;92.10;;;;;;5014927;28;20387;-76
2023/07/29 09:28:58;;;;;;;2.72;1.00;;;21.20;91.60;;;;;;5013290;28;20064;-78
2023/07/29 09:31:26;;;;;;;3.00;1.45;;;21.30;91.50;;;;;;5013372;28;20432;-76
2023/07/29 09:34:03;;;;;;;2.70;1.20;;;21.30;91.10;;;;;;5013515;28;20022;-76
2023/07/29 09:36:32;;;;;;;2.60;1.00;;;21.40;91.00;;;;;;5015229;28;20037;-76
2023/07/29 09:38:58;;;;;;;4.80;1.25;;;21.40;90.70;;;;;;5010007;28;20019;-77
2023/07/29 09:41:30;;;;;;;4.05;1.08;;;21.40;90.80;;;;;;4994286;28;20359;-78
2023/07/29 09:43:58;;;;;;;3.30;0.95;;;21.40;90.60;;;;;;4993740;28;20026;-76
2023/07/29 09:46:27;;;;;;;2.30;0.77;;;21.40;90.60;;;;;;4994008;28;20030;-76
2023/07/29 09:48:57;;;;;;;3.88;0.90;;;21.40;90.80;;;;;;4994159;28;20033;-75
2023/07/29 09:51:23;;;;;;;2.72;0.88;;;21.40;90.90;;;;;;4995043;28;20041;-75
2023/07/29 09:53:51;;;;;;;2.80;0.80;;;21.50;91.00;;;;;;4977565;28;20030;-75
2023/07/29 09:56:17;;;;;;;3.22;0.95;;;21.50;91.00;;;;;;4993572;28;20431;-75
2023/07/29 09:58:45;;;;;;;3.67;0.88;;;21.60;91.40;;;;;;4977320;28;20077;-75
2023/07/29 10:01:11;;;;;;;1.27;0.68;;;21.70;91.10;;;;;;4977602;28;20031;-75
2023/07/29 10:03:37;;;;;;;2.67;1.10;;;21.80;91.30;;;;;;4994674;28;20035;-74
2023/07/29 10:06:05;;;;;;;2.65;1.00;;;22.00;91.20;;;;;;4993378;28;20053;-75
2023/07/29 10:08:40;;;;;;;2.85;0.98;;;22.20;91.00;;;;;;4996654;28;20033;-75
2023/07/29 10:11:07;;;;;;;3.45;1.00;;;22.40;91.40;;;;;;5014008;28;20034;-76
2023/07/29 10:13:33;;;;;;;3.33;0.90;;;22.70;90.80;;;;;;5013363;28;20221;-74
2023/07/29 10:16:02;;;;;;;3.03;0.90;;;22.90;90.00;;;;;;5012658;28;20026;-75
2023/07/29 10:18:28;;;;;;;2.55;0.70;;;23.10;88.10;;;;;;5014040;28;20533;-76
2023/07/29 10:20:56;;;;;;;2.35;0.63;;;23.30;87.90;;;;;;5013580;28;20458;-75
2023/07/29 10:23:24;;;;;;;3.08;0.70;;;23.50;85.90;;;;;;5012603;28;20088;-75
2023/07/29 10:26:10;;;;;;;5.03;0.80;;;23.60;84.50;;;;;;5013672;28;20018;-76
2023/07/29 10:28:40;;;;;;;2.13;0.70;;;23.60;83.40;;;;;;5008026;28;20053;-81
2023/07/29 10:31:06;;;;;;;3.30;1.08;;;23.50;82.60;;;;;;5028916;28;20491;-78
2023/07/29 10:33:34;;;;;;;2.72;0.95;;;23.40;82.70;;;;;;5013926;28;20040;-80
2023/07/29 10:36:00;;;;;;;2.28;0.73;;;23.40;82.80;;;;;;5013803;28;20045;-84
2023/07/29 10:38:27;;;;;;;2.13;0.70;;;23.40;82.60;;;;;;5013155;28;20026;-79
2023/07/29 10:40:58;;;;;;;3.95;1.02;;;23.40;82.70;;;;;;5012585;28;20030;-81
2023/07/29 10:43:26;;;;;;;3.45;1.00;;;23.40;82.20;;;;;;5028929;28;20065;-80
2023/07/29 10:45:53;;;;;;;2.35;0.80;;;23.40;82.10;;;;;;5013801;28;20022;-80
2023/07/29 10:48:34;;;;;;;2.72;1.02;;;23.40;82.20;;;;;;5012391;28;20026;-79
2023/07/29 10:51:22;;;;;;;2.40;1.00;;;23.50;82.50;;;;;;5013493;28;20055;-79
2023/07/29 10:53:47;;;;;;;2.60;1.00;;;23.60;81.90;;;;;;5012237;28;20113;-78
2023/07/29 10:56:24;;;;;;;3.05;0.90;;;23.60;80.70;;;;;;5013572;28;20109;-79
2023/07/29 10:58:49;;;;;;;3.17;1.00;;;23.50;80.40;;;;;;5014118;28;20026;-80
2023/07/29 11:01:32;;;;;;;1.90;0.80;;;23.50;80.50;;;;;;5012341;28;20036;-81
2023/07/29 11:04:20;;;;;;;5.30;0.88;;;23.50;80.40;;;;;;5013682;28;20037;-79
2023/07/29 11:07:04;;;;;;;2.35;0.80;;;23.60;80.10;;;;;;5013876;28;20026;-78
2023/07/29 11:09:48;;;;;;;1.70;0.65;;;23.80;80.30;;;;;;5015115;28;20389;-79
2023/07/29 11:12:36;;;;;;;2.22;0.80;;;23.90;80.20;;;;;;5012815;28;20038;-79
2023/07/29 11:15:10;;;;;;;2.25;0.80;;;23.90;79.60;;;;;;5013680;28;20022;-79
2023/07/29 11:17:38;;;;;;;2.03;0.93;;;23.80;77.10;;;;;;5006373;28;20085;-78
2023/07/29 11:20:04;;;;;;;3.78;1.05;;;23.60;76.70;;;;;;5005004;28;20033;-79
2023/07/29 11:22:30;;;;;;;1.63;0.63;;;23.50;76.90;;;;;;5005674;28;20038;-79
2023/07/29 11:24:56;;;;;;;3.00;1.08;;;23.40;77.70;;;;;;5007226;28;20030;-78
2023/07/29 11:27:22;;;;;;;2.50;0.80;;;23.20;78.00;;;;;;5012139;28;20038;-79
2023/07/29 11:29:48;;;;;;;1.48;0.60;;;23.10;78.40;;;;;;5012026;28;20111;-78
2023/07/29 11:32:15;;;;;;;1.77;0.70;;;23.10;78.90;;;;;;5021530;28;20037;-78
2023/07/29 11:34:41;;;;;;;3.20;0.70;;;23.00;79.30;;;;;;5016782;28;20018;-79
2023/07/29 11:37:09;;;;;;;1.88;0.93;;;23.00;79.60;;;;;;5034037;28;20552;-78
2023/07/29 11:39:44;;;;;;;2.30;0.80;;;22.90;79.50;;;;;;5008328;28;20045;-79
2023/07/29 11:42:15;;;;;;;2.78;1.00;;;22.90;79.90;;;;;;5015802;28;20041;-81
2023/07/29 11:44:42;;;;;;;2.08;0.80;;;22.90;80.20;;;;;;5032546;28;20520;-79
2023/07/29 11:47:12;;;;;;;2.50;0.73;;;22.80;80.30;;;;;;5017179;28;20084;-81
2023/07/29 11:49:41;;;;;;;4.40;1.55;;;22.70;80.60;;;;;;5016226;28;20072;-80
2023/07/29 11:52:08;;;;;;;3.60;1.02;;;22.50;82.30;;;;;;4999534;28;20502;-80
2023/07/29 11:54:38;;;;;;;2.42;1.00;;;22.30;85.10;;;;;;5015909;28;20441;-82
2023/07/29 11:57:07;;;;;;;2.45;1.13;;;22.00;87.10;;;;;;5003733;28;20034;-78
2023/07/29 11:59:34;;;;;;;1.90;0.90;;;21.60;88.50;;;;;;5015366;28;20022;-82
2023/07/29 12:02:13;;;;;;;2.80;1.55;;;21.30;89.40;;;;;;5025262;28;20026;-85
2023/07/29 12:04:39;;;;;;;2.08;0.80;;;21.00;90.20;;;;;;5014876;28;20367;-82
2023/07/29 12:07:06;;;;;;;1.98;0.80;;;20.80;91.10;;;;;;5016131;28;20350;-84
2023/07/29 12:09:32;;;;;;;3.65;0.80;;;20.50;91.60;;;;;;5015546;28;20030;-83
2023/07/29 12:12:04;;;;;;;3.45;0.98;;;20.30;92.00;;;;;;5032071;28;20029;-84
2023/07/29 12:14:30;;;;;;;8.10;0.80;;;20.10;92.50;;;;;;5015122;28;20025;-77
2023/07/29 12:16:56;;;;;;;5.05;1.05;;;19.90;93.40;;;;;;5014945;28;20620;-76
2023/07/29 12:19:22;;;;;;;5.07;1.50;;;19.80;94.20;;;;;;5001972;28;20025;-76
2023/07/29 12:21:49;;;;;;;2.45;0.85;;;19.70;94.90;;;;;;5015848;28;20097;-79
2023/07/29 12:24:14;;;;;;;2.15;0.80;;;19.60;95.70;;;;;;4999160;28;20108;-77
2023/07/29 12:26:42;;;;;;;3.67;1.30;;;19.70;95.70;;;;;;5004058;28;20482;-78
2023/07/29 12:29:15;;;;;;;4.20;1.20;;;19.70;96.20;;;;;;5014259;28;20042;-79
2023/07/29 12:31:41;;;;;;;3.13;1.17;;;19.70;96.20;;;;;;4998473;28;20042;-83
2023/07/29 12:34:08;;;;;;;1.65;0.68;;;19.70;96.90;;;;;;5015859;28;20472;-83
2023/07/29 12:36:43;;;;;;;2.55;0.75;;;19.70;97.00;;;;;;4982487;28;20041;-81
2023/07/29 12:39:31;;;;;;;1.55;0.50;;;19.80;97.10;;;;;;5002867;28;20026;-81
2023/07/29 12:41:58;;;;;;;1.50;0.70;;;19.80;97.30;;;;;;5014524;28;20482;-80
2023/07/29 12:44:25;;;;;;;0.98;0.50;;;19.90;97.40;;;;;;5015358;28;20037;-80
2023/07/29 12:46:55;;;;;;;1.00;0.50;;;20.00;97.80;;;;;;4998121;28;20494;-80